ADDS TAF Board (Experimental) INFO Settings
IDs:

KMCI - Kansas City Intl, MO, US

Issued at 2324 UTC 12 Feb 2016
Updated at: 0453 UTC 13 Feb 2016
Time0353Z 13/05Z 13/06Z 13/07Z 13/08Z 13/09Z 13/10Z 13/11Z 13/12Z 13/13Z 13/14Z 13/15Z 13/16Z 13/17Z
Type OBS PRVL PRVL PRVL PRVL PRVL PRVL PRVL PRVL PRVL PRVL PRVL PRVL PRVL
VIS 10 >6 >6 >6 >6 >6 >6 >6 >6 >6 >6 >6 >6 >6
CIG -- 120 120 120 120 120 120 120 120 120 50 50 50 50
Cover CLR BKN BKN BKN BKN BKN BKN BKN BKN BKN OVC OVC OVC OVC
FltCat VFR VFR VFR VFR VFR VFR VFR VFR VFR VFR VFR VFR VFR VFR
WX -- -- -- -- -- -- -- -- -- -- -- -- -- --
WDir 10 30 30 30 30 30 30 30 30 30 100 100 100 100
WSpd 7 11 11 11 11 11 11 11 11 11 10 10 10 10
WGst -- -- -- -- -- -- -- -- -- -- -- -- -- --
R01/19
XWnd 0 -3 -3 -3 -3 -3 -3 -3 -3 -3 -10 -10 -10 -10
HWnd 7 11 11 11 11 11 11 11 11 11 1 1 1 1
R09/27
XWnd 7 10 10 10 10 10 10 10 10 10 -1 -1 -1 -1
HWnd 0 4 4 4 4 4 4 4 4 4 10 10 10 10

NOTE: TEMPO conditions in [brackets]. Keep in mind TEMPO conditions might be better (lower impact) than prevailing conditions.

Raw TAF
KMCI 122324Z 1300/1324 36013KT P6SM FEW150
  FM130500 03011KT P6SM BKN120
  FM131400 10010KT P6SM OVC050


Raw METAR
KMCI 130353Z 01007KT 10SM CLR M07/M13 A3059 RMK AO2 SLP369 T10721133
KMCI 130253Z 36008KT 10SM CLR M07/M13 A3057 RMK AO2 PRESRR SLP364 T10671133 51021
KMCI 130153Z 01010KT 10SM CLR M06/M13 A3055 RMK AO2 SLP357 T10561128

METAR Board
Radar Display
Forecast Discussion

TAF Board Legend

Potential Impact
Threat None Slight Moderate High
Visibility (sm) ≥5.1 5.1>X≥3 3>X≥1 <1
Ceiling (100 ft) ≥30.1 30.1>X≥10 10>X≥5 <5
Wind Speed (kt) <10 10≤X<20 20≤X<30 ≥30
Wind Gust (kt) <15 15≤X<25 25≤X<35 ≥35
Weather No Wx Reported VCTS,-TS,-FZRA,SN TS,FZRA +TS,+FZRA,+SN